Time;durP1;ratioP1;P1;durP2;ratioP2;P2;SDS_P1;SDS_P2;PMS_P1;PMS_P2;Temp;Humidity;BMP_temperature;BMP_pressure;BME280_temperature;BME280_humidity;BME280_pressure;Samples;Min_cycle;Max_cycle;Signal;HPM_P1;HPM_P2
2023/12/01 00:00:39;;;;;;;28.98;11.23;;;2.20;99.90;;;;;;5095569;28;20418;-87
2023/12/01 00:03:05;;;;;;;26.48;11.23;;;2.20;99.90;;;;;;5094354;28;20050;-87
2023/12/01 00:05:31;;;;;;;37.13;12.57;;;2.20;99.90;;;;;;5111706;28;20028;-88
2023/12/01 00:07:56;;;;;;;34.05;12.27;;;2.20;99.90;;;;;;5094821;28;20032;-87
2023/12/01 00:10:22;;;;;;;33.80;12.45;;;2.20;99.90;;;;;;5094138;28;20126;-87
2023/12/01 00:12:48;;;;;;;26.60;10.75;;;2.20;99.90;;;;;;5111376;28;20043;-87
2023/12/01 00:15:13;;;;;;;34.65;13.65;;;2.20;99.90;;;;;;5094380;28;20553;-86
2023/12/01 00:17:39;;;;;;;27.00;9.32;;;2.20;99.90;;;;;;5094958;28;20039;-87
2023/12/01 00:20:05;;;;;;;20.40;8.25;;;2.20;99.90;;;;;;5094727;28;20498;-87
2023/12/01 00:22:31;;;;;;;26.38;10.48;;;2.20;99.90;;;;;;5111478;28;20042;-87
2023/12/01 00:24:56;;;;;;;31.73;14.35;;;2.20;99.90;;;;;;5094982;28;20036;-86
2023/12/01 00:27:22;;;;;;;25.85;11.15;;;2.10;99.90;;;;;;5113089;28;20039;-87
2023/12/01 00:29:48;;;;;;;30.02;12.05;;;2.10;99.90;;;;;;5100064;28;20039;-87
2023/12/01 00:32:13;;;;;;;30.15;13.48;;;2.10;99.90;;;;;;5122604;28;20388;-87
2023/12/01 00:34:39;;;;;;;30.92;10.77;;;2.10;99.90;;;;;;5111430;28;20036;-87
2023/12/01 00:37:04;;;;;;;23.65;10.63;;;2.10;99.90;;;;;;5111056;28;20040;-86
2023/12/01 00:39:30;;;;;;;24.65;10.10;;;2.10;99.90;;;;;;5111102;28;20032;-86
2023/12/01 00:41:55;;;;;;;23.88;10.52;;;2.10;99.90;;;;;;5110758;28;20054;-87
2023/12/01 00:44:21;;;;;;;30.30;11.68;;;2.10;99.90;;;;;;5093270;28;20050;-87
2023/12/01 00:46:47;;;;;;;26.70;9.65;;;2.00;99.90;;;;;;5094084;28;20051;-87
2023/12/01 00:49:12;;;;;;;25.75;9.30;;;2.00;99.90;;;;;;5093662;28;20047;-87
2023/12/01 00:51:41;;;;;;;20.92;8.23;;;2.00;99.90;;;;;;5093767;28;20044;-87
2023/12/01 00:54:07;;;;;;;31.80;11.15;;;2.00;99.90;;;;;;5110910;28;20049;-87
2023/12/01 00:56:33;;;;;;;25.17;9.90;;;2.00;99.90;;;;;;5145332;27;20109;-86
2023/12/01 00:58:58;;;;;;;25.08;10.13;;;2.00;99.90;;;;;;5093944;28;20485;-86
2023/12/01 01:01:24;;;;;;;23.20;8.23;;;2.00;99.90;;;;;;5107363;28;20376;-87
2023/12/01 01:03:50;;;;;;;25.17;8.85;;;2.00;99.90;;;;;;5094370;28;20036;-86
2023/12/01 01:06:15;;;;;;;26.50;9.07;;;2.00;99.90;;;;;;5110889;28;20772;-87
2023/12/01 01:08:41;;;;;;;26.17;10.65;;;1.90;99.90;;;;;;5093808;28;20043;-86
2023/12/01 01:11:06;;;;;;;24.27;9.77;;;1.90;99.90;;;;;;5110980;28;20051;-87
2023/12/01 01:13:32;;;;;;;29.25;9.07;;;1.90;99.90;;;;;;5093329;28;20162;-87
2023/12/01 01:15:58;;;;;;;27.58;10.45;;;1.90;99.90;;;;;;5093837;28;20463;-87
2023/12/01 01:18:23;;;;;;;21.02;8.27;;;1.90;99.90;;;;;;5110869;28;20032;-87
2023/12/01 01:20:49;;;;;;;23.90;9.15;;;1.80;99.90;;;;;;5111075;28;20075;-87
2023/12/01 01:23:16;;;;;;;35.55;10.73;;;1.90;99.90;;;;;;5110667;28;20088;-87
2023/12/01 01:25:41;;;;;;;19.38;8.02;;;1.90;99.90;;;;;;5093412;28;20035;-87
2023/12/01 01:28:08;;;;;;;21.73;8.60;;;1.80;99.90;;;;;;5110600;28;20046;-87
2023/12/01 01:30:33;;;;;;;22.08;8.50;;;1.80;99.90;;;;;;5093831;28;20430;-87
2023/12/01 01:32:59;;;;;;;19.27;8.65;;;1.80;99.90;;;;;;5110484;28;20047;-87
2023/12/01 01:35:25;;;;;;;15.57;6.25;;;1.80;99.90;;;;;;5110478;28;20058;-87
2023/12/01 01:37:50;;;;;;;22.50;8.73;;;1.80;99.90;;;;;;5093270;28;20096;-87
2023/12/01 01:40:16;;;;;;;22.27;8.02;;;1.80;99.90;;;;;;5093680;28;20046;-87
2023/12/01 01:42:42;;;;;;;24.08;9.43;;;1.80;99.90;;;;;;5093271;28;20044;-87
2023/12/01 01:45:08;;;;;;;22.45;9.38;;;1.80;99.90;;;;;;5093092;28;20046;-87
2023/12/01 01:47:34;;;;;;;23.75;9.18;;;1.70;99.90;;;;;;5110380;28;20047;-87
2023/12/01 01:50:01;;;;;;;23.85;9.20;;;1.70;99.90;;;;;;5093600;28;20071;-87
2023/12/01 01:52:27;;;;;;;20.77;9.23;;;1.70;99.90;;;;;;5092918;28;20038;-87
2023/12/01 01:54:53;;;;;;;25.00;9.43;;;1.70;99.90;;;;;;5110411;28;20035;-87
2023/12/01 01:57:19;;;;;;;27.55;9.70;;;1.70;99.90;;;;;;5109710;28;20035;-87
2023/12/01 01:59:44;;;;;;;20.08;7.43;;;1.70;99.90;;;;;;5093265;28;20510;-87
2023/12/01 02:02:10;;;;;;;23.92;8.68;;;1.70;99.90;;;;;;5093475;28;20028;-87
2023/12/01 02:04:36;;;;;;;26.05;8.85;;;1.60;99.90;;;;;;5093282;28;20046;-87
2023/12/01 02:07:02;;;;;;;26.00;9.35;;;1.60;99.90;;;;;;5092798;28;20100;-86
2023/12/01 02:09:32;;;;;;;21.92;9.38;;;1.60;99.90;;;;;;5110054;28;20094;-87
2023/12/01 02:11:59;;;;;;;21.80;8.80;;;1.60;99.90;;;;;;5092830;28;20044;-87
2023/12/01 02:14:25;;;;;;;19.02;7.05;;;1.60;99.90;;;;;;5093008;28;20036;-87
2023/12/01 02:16:51;;;;;;;17.15;6.82;;;1.60;99.90;;;;;;5092952;28;20040;-87
2023/12/01 02:19:16;;;;;;;18.13;6.63;;;1.60;99.90;;;;;;5093111;28;20036;-87
2023/12/01 02:21:46;;;;;;;17.40;6.65;;;1.60;99.90;;;;;;5093063;28;20044;-87
2023/12/01 02:24:12;;;;;;;19.20;7.57;;;1.50;99.90;;;;;;5109798;28;20568;-86
2023/12/01 02:26:38;;;;;;;18.73;6.93;;;1.50;99.90;;;;;;5094927;28;20044;-87
2023/12/01 02:29:05;;;;;;;18.83;7.25;;;1.50;99.90;;;;;;5097038;28;20039;-87
2023/12/01 02:31:31;;;;;;;16.30;6.35;;;1.50;99.90;;;;;;5113907;28;20048;-86
2023/12/01 02:33:56;;;;;;;17.52;7.05;;;1.50;99.90;;;;;;5113764;28;20036;-86
2023/12/01 02:36:22;;;;;;;14.40;5.80;;;1.40;99.90;;;;;;5096906;28;20397;-86
2023/12/01 02:38:48;;;;;;;13.70;5.47;;;1.50;99.90;;;;;;5096814;28;20043;-86
2023/12/01 02:41:15;;;;;;;15.88;7.15;;;1.40;99.90;;;;;;5097154;28;20454;-86
2023/12/01 02:43:41;;;;;;;17.05;6.53;;;1.40;99.90;;;;;;5121926;27;20043;-87
2023/12/01 02:46:07;;;;;;;18.33;7.18;;;1.40;99.90;;;;;;5097262;28;20122;-86
2023/12/01 02:48:32;;;;;;;17.08;6.57;;;1.40;99.90;;;;;;5097256;28;20043;-86
2023/12/01 02:50:58;;;;;;;14.70;6.32;;;1.40;99.90;;;;;;5115070;28;20041;-86
2023/12/01 02:53:24;;;;;;;15.48;6.38;;;1.40;99.90;;;;;;5129976;28;20055;-86
2023/12/01 02:55:50;;;;;;;13.13;5.20;;;1.30;99.90;;;;;;5117645;28;20032;-87
2023/12/01 02:58:15;;;;;;;22.90;8.68;;;1.30;99.90;;;;;;5095712;28;20031;-87
2023/12/01 03:00:42;;;;;;;12.27;5.07;;;1.30;99.90;;;;;;5113820;28;20054;-87
2023/12/01 03:03:08;;;;;;;16.42;5.72;;;1.30;99.90;;;;;;5113531;28;20437;-86
2023/12/01 03:05:33;;;;;;;15.82;7.68;;;1.30;99.90;;;;;;5096179;28;20048;-87
2023/12/01 03:07:59;;;;;;;15.73;8.20;;;1.30;99.90;;;;;;5113185;28;20623;-87
2023/12/01 03:10:24;;;;;;;14.20;5.15;;;1.30;99.90;;;;;;5096508;28;20093;-87
2023/12/01 03:12:50;;;;;;;16.33;6.60;;;1.30;99.90;;;;;;5096463;28;20036;-87
2023/12/01 03:15:20;;;;;;;13.82;5.82;;;1.20;99.90;;;;;;5096398;28;20440;-87
2023/12/01 03:17:46;;;;;;;15.85;6.35;;;1.20;99.90;;;;;;5095975;28;20517;-87
2023/12/01 03:20:12;;;;;;;17.10;7.78;;;1.20;99.90;;;;;;5096229;28;20046;-86
2023/12/01 03:22:38;;;;;;;15.60;6.75;;;1.20;99.90;;;;;;5112860;28;20621;-86
2023/12/01 03:25:09;;;;;;;14.95;6.25;;;1.10;99.90;;;;;;5091697;28;20411;-86
2023/12/01 03:27:37;;;;;;;13.18;5.68;;;1.10;99.90;;;;;;5095212;28;20039;-87
2023/12/01 03:30:03;;;;;;;16.23;6.25;;;1.00;99.90;;;;;;5113294;28;20047;-86
2023/12/01 03:32:28;;;;;;;11.90;6.22;;;1.00;99.90;;;;;;5112956;28;20122;-86
2023/12/01 03:34:54;;;;;;;14.35;5.18;;;1.00;99.90;;;;;;5112803;28;20043;-86
2023/12/01 03:37:19;;;;;;;11.27;4.65;;;1.00;99.90;;;;;;5112338;28;20059;-87
2023/12/01 03:39:45;;;;;;;15.48;5.50;;;0.90;99.90;;;;;;5095960;28;20032;-87
2023/12/01 03:42:11;;;;;;;15.05;6.13;;;0.90;99.90;;;;;;5095821;28;20121;-86
2023/12/01 03:44:37;;;;;;;11.55;5.18;;;0.90;99.90;;;;;;5095976;28;20141;-86
2023/12/01 03:47:03;;;;;;;12.90;4.63;;;0.80;99.90;;;;;;5095419;28;20070;-86
2023/12/01 03:49:29;;;;;;;14.07;4.97;;;0.80;99.90;;;;;;5095668;28;20046;-87
2023/12/01 03:51:54;;;;;;;15.50;6.10;;;0.80;99.90;;;;;;5112361;28;20525;-87
2023/12/01 03:54:20;;;;;;;19.33;6.90;;;0.80;99.90;;;;;;5112580;28;20062;-87
2023/12/01 03:56:46;;;;;;;13.98;6.10;;;0.80;99.90;;;;;;5095534;28;20040;-87
2023/12/01 03:59:12;;;;;;;18.23;6.93;;;0.70;99.90;;;;;;5095303;28;20035;-87
2023/12/01 04:01:40;;;;;;;13.30;5.50;;;0.70;99.90;;;;;;5112423;28;20089;-87
2023/12/01 04:04:10;;;;;;;16.55;5.32;;;0.70;99.90;;;;;;5095240;28;20127;-87
2023/12/01 04:06:37;;;;;;;16.83;6.00;;;0.70;99.90;;;;;;5095125;28;20043;-86
2023/12/01 04:09:09;;;;;;;17.02;6.72;;;0.70;99.90;;;;;;5112414;28;20047;-86
2023/12/01 04:11:35;;;;;;;20.83;7.25;;;0.70;99.90;;;;;;5112365;28;20043;-86
2023/12/01 04:14:03;;;;;;;15.55;6.10;;;0.70;99.90;;;;;;5094997;28;20085;-86
2023/12/01 04:16:32;;;;;;;15.18;5.93;;;0.60;99.90;;;;;;5112259;28;20522;-86
2023/12/01 04:18:57;;;;;;;14.93;5.38;;;0.60;99.90;;;;;;5095373;28;20058;-86
2023/12/01 04:21:23;;;;;;;14.50;4.82;;;0.60;99.90;;;;;;5086639;28;20510;-86
2023/12/01 04:23:49;;;;;;;15.63;5.75;;;0.50;99.90;;;;;;5095036;28;20035;-86
2023/12/01 04:26:14;;;;;;;13.48;5.38;;;0.50;99.90;;;;;;5094776;28;20043;-86
2023/12/01 04:28:40;;;;;;;14.20;6.50;;;0.50;99.90;;;;;;5094991;28;20114;-86
2023/12/01 04:31:06;;;;;;;19.42;7.50;;;0.40;99.90;;;;;;5094878;28;20406;-86
2023/12/01 04:33:32;;;;;;;17.55;7.07;;;0.40;99.90;;;;;;5094389;28;20040;-86
2023/12/01 04:35:57;;;;;;;17.40;7.55;;;0.40;99.90;;;;;;5094989;28;20028;-87
2023/12/01 04:38:23;;;;;;;16.92;6.60;;;0.40;99.90;;;;;;5094537;28;20036;-86
2023/12/01 04:40:50;;;;;;;17.38;7.28;;;0.40;99.90;;;;;;5111726;28;20176;-86
2023/12/01 04:43:17;;;;;;;21.70;7.70;;;0.40;99.90;;;;;;5086554;28;20380;-87
2023/12/01 04:45:43;;;;;;;19.20;8.32;;;0.30;99.90;;;;;;5111596;28;20242;-87
2023/12/01 04:48:09;;;;;;;20.05;8.75;;;0.30;99.90;;;;;;5093930;28;20123;-87
2023/12/01 04:50:40;;;;;;;19.77;7.18;;;0.40;99.90;;;;;;5093950;28;20039;-86
2023/12/01 04:53:06;;;;;;;21.45;9.63;;;0.40;99.90;;;;;;5111511;28;20587;-87
2023/12/01 04:55:31;;;;;;;23.40;8.40;;;0.40;99.90;;;;;;5111451;28;20071;-86
2023/12/01 04:58:01;;;;;;;18.38;8.18;;;0.30;99.90;;;;;;5094099;28;20054;-87
2023/12/01 05:00:27;;;;;;;17.27;8.20;;;0.30;99.90;;;;;;5094062;28;20043;-87
2023/12/01 05:02:55;;;;;;;20.98;7.07;;;0.30;99.90;;;;;;5111229;28;20388;-87
2023/12/01 05:05:23;;;;;;;16.23;6.85;;;0.30;99.90;;;;;;5094399;28;20142;-87
2023/12/01 05:07:51;;;;;;;26.83;10.35;;;0.30;99.90;;;;;;5094722;28;20044;-87
2023/12/01 05:10:22;;;;;;;19.90;8.35;;;0.30;99.90;;;;;;5095847;28;20081;-87
2023/12/01 05:12:49;;;;;;;15.27;6.72;;;0.30;99.90;;;;;;5108551;28;20042;-87
2023/12/01 05:15:19;;;;;;;29.15;7.93;;;0.20;99.90;;;;;;5097312;28;20039;-86
2023/12/01 05:17:46;;;;;;;23.17;8.82;;;0.20;99.90;;;;;;5093787;28;20085;-87
2023/12/01 05:20:15;;;;;;;15.65;6.60;;;0.20;99.90;;;;;;5111160;28;20035;-87
2023/12/01 05:22:49;;;;;;;17.25;8.13;;;0.20;99.90;;;;;;5110767;28;20498;-87
2023/12/01 05:25:17;;;;;;;20.88;8.45;;;0.20;99.90;;;;;;5111262;28;20043;-86
2023/12/01 05:27:46;;;;;;;22.92;7.70;;;0.20;99.90;;;;;;5093184;28;20051;-86
2023/12/01 05:30:14;;;;;;;20.45;9.05;;;0.20;99.90;;;;;;5093703;28;20051;-87
2023/12/01 05:32:48;;;;;;;17.33;8.65;;;0.20;99.90;;;;;;5110639;28;20028;-86
2023/12/01 05:35:15;;;;;;;19.77;7.53;;;0.20;99.90;;;;;;5111108;28;20456;-87
2023/12/01 05:37:42;;;;;;;15.95;6.70;;;0.10;99.90;;;;;;5110849;28;20035;-86
2023/12/01 05:40:14;;;;;;;18.33;6.78;;;0.10;99.90;;;;;;5093289;28;20085;-87
2023/12/01 05:42:41;;;;;;;17.42;7.07;;;0.00;99.90;;;;;;5110639;28;20075;-87
2023/12/01 05:45:11;;;;;;;20.90;6.55;;;0.00;99.90;;;;;;5093840;28;20047;-86
2023/12/01 05:47:42;;;;;;;21.65;8.35;;;0.00;99.90;;;;;;5110120;28;20044;-86
2023/12/01 05:50:15;;;;;;;23.30;8.25;;;0.00;99.90;;;;;;5110097;28;20071;-87
2023/12/01 05:52:42;;;;;;;21.75;8.30;;;-0.10;99.90;;;;;;5093135;28;20119;-86
2023/12/01 05:55:21;;;;;;;24.05;8.88;;;-0.10;99.90;;;;;;5110341;28;20042;-86
2023/12/01 05:57:55;;;;;;;22.35;8.45;;;-0.10;99.90;;;;;;5093354;28;20028;-86
2023/12/01 06:00:31;;;;;;;22.95;8.70;;;-0.10;99.90;;;;;;5092791;28;20040;-86
2023/12/01 06:02:58;;;;;;;18.63;8.85;;;-0.20;99.90;;;;;;5093273;28;20066;-86
2023/12/01 06:05:25;;;;;;;21.00;8.25;;;-0.20;99.90;;;;;;5110269;28;20031;-86
2023/12/01 06:07:56;;;;;;;24.42;8.15;;;-0.20;99.90;;;;;;5093281;28;20114;-87
2023/12/01 06:10:23;;;;;;;18.50;7.50;;;-0.20;99.90;;;;;;5084815;28;20040;-87
2023/12/01 06:12:49;;;;;;;17.88;8.65;;;-0.30;99.90;;;;;;5110172;28;20036;-87
2023/12/01 06:15:17;;;;;;;22.02;7.78;;;-0.30;99.90;;;;;;5109978;28;20085;-86
2023/12/01 06:17:45;;;;;;;17.25;7.80;;;-0.30;99.90;;;;;;5110101;28;20066;-86
2023/12/01 06:20:19;;;;;;;19.15;8.20;;;-0.40;99.90;;;;;;5092838;28;20032;-86
2023/12/01 06:22:59;;;;;;;21.42;8.02;;;-0.40;99.90;;;;;;5092902;28;20118;-86
2023/12/01 06:25:31;;;;;;;19.25;7.72;;;-0.40;99.90;;;;;;5093451;28;20489;-86
2023/12/01 06:28:01;;;;;;;23.23;7.75;;;-0.40;99.90;;;;;;5109561;28;20551;-86
2023/12/01 06:30:28;;;;;;;18.02;6.80;;;-0.40;99.90;;;;;;5109728;28;20039;-87
2023/12/01 06:32:55;;;;;;;16.42;6.38;;;-0.50;99.90;;;;;;5093047;28;20043;-86
2023/12/01 06:35:21;;;;;;;22.73;9.10;;;-0.50;99.90;;;;;;5092435;28;20038;-86
2023/12/01 06:37:48;;;;;;;21.05;6.60;;;-0.50;99.90;;;;;;5092815;28;20036;-86
2023/12/01 06:40:17;;;;;;;21.95;8.18;;;-0.50;99.90;;;;;;5092595;28;20437;-86
2023/12/01 06:42:54;;;;;;;20.50;8.23;;;-0.50;99.90;;;;;;5109707;28;20135;-87
2023/12/01 06:45:22;;;;;;;21.00;8.55;;;-0.60;99.90;;;;;;5093087;28;20071;-86
2023/12/01 06:47:48;;;;;;;23.77;8.30;;;-0.70;99.90;;;;;;5109450;28;20040;-87
2023/12/01 06:50:16;;;;;;;21.90;7.88;;;-0.70;99.90;;;;;;5109457;28;20505;-86
2023/12/01 06:52:47;;;;;;;21.30;9.15;;;-0.70;99.90;;;;;;5109676;28;20036;-87
2023/12/01 06:55:13;;;;;;;28.23;9.98;;;-0.70;99.90;;;;;;5092949;28;20123;-87
2023/12/01 06:57:41;;;;;;;24.45;9.68;;;-0.80;99.90;;;;;;5092840;28;20141;-87
2023/12/01 07:00:08;;;;;;;18.63;7.63;;;-0.70;99.90;;;;;;5109593;28;20046;-87
2023/12/01 07:02:38;;;;;;;22.20;9.18;;;-0.80;99.90;;;;;;5092531;28;20513;-87
2023/12/01 07:05:19;;;;;;;19.88;8.32;;;-0.80;99.90;;;;;;5109968;28;20053;-87
2023/12/01 07:07:47;;;;;;;18.05;7.80;;;-0.90;99.90;;;;;;5092441;28;20498;-86
2023/12/01 07:10:16;;;;;;;17.45;6.45;;;-0.80;99.90;;;;;;5092165;28;20031;-86
2023/12/01 07:12:41;;;;;;;15.95;6.50;;;-0.90;99.90;;;;;;5111225;28;20529;-87
2023/12/01 07:15:13;;;;;;;16.27;7.05;;;-0.90;99.90;;;;;;5096318;28;20031;-86
2023/12/01 07:17:39;;;;;;;15.00;5.07;;;-1.00;99.90;;;;;;5105316;28;20097;-86
2023/12/01 07:20:13;;;;;;;19.10;6.60;;;-1.00;99.90;;;;;;5104132;28;20040;-86
2023/12/01 07:22:43;;;;;;;20.63;8.88;;;-1.00;99.90;;;;;;5096472;28;20047;-86
2023/12/01 07:25:21;;;;;;;16.42;5.45;;;-1.10;99.90;;;;;;5112876;28;20035;-86
2023/12/01 07:27:57;;;;;;;16.13;6.57;;;-1.10;99.90;;;;;;5112865;28;20035;-86
2023/12/01 07:30:23;;;;;;;19.98;6.35;;;-1.10;99.90;;;;;;5115267;28;20061;-87
2023/12/01 07:32:50;;;;;;;13.27;5.78;;;-1.10;99.90;;;;;;5119556;28;20039;-86
2023/12/01 07:35:16;;;;;;;18.35;6.70;;;-1.20;99.90;;;;;;5115955;28;20031;-86
2023/12/01 07:37:43;;;;;;;17.60;5.95;;;-1.20;99.90;;;;;;5113233;28;20035;-86
2023/12/01 07:40:09;;;;;;;15.52;6.65;;;-1.20;99.90;;;;;;5095902;28;20050;-86
2023/12/01 07:42:35;;;;;;;19.80;8.07;;;-1.10;99.90;;;;;;5098909;27;20490;-86
2023/12/01 07:45:01;;;;;;;19.58;7.38;;;-1.10;99.90;;;;;;5118707;27;20036;-86
2023/12/01 07:47:26;;;;;;;20.42;8.55;;;-1.10;99.90;;;;;;5095917;28;20479;-86
2023/12/01 07:49:52;;;;;;;21.25;8.70;;;-1.20;99.90;;;;;;5113086;28;20043;-86
2023/12/01 07:52:17;;;;;;;20.00;8.57;;;-1.20;99.90;;;;;;5104166;28;20078;-86
2023/12/01 07:54:44;;;;;;;18.77;7.35;;;-1.20;99.90;;;;;;5112763;28;20039;-86
2023/12/01 07:57:10;;;;;;;18.52;6.72;;;-1.20;99.90;;;;;;5095282;28;20054;-86
2023/12/01 07:59:36;;;;;;;13.48;5.60;;;-1.20;99.90;;;;;;5094842;28;20040;-86
2023/12/01 08:02:02;;;;;;;18.17;8.07;;;-1.20;99.90;;;;;;5112270;28;20050;-86
2023/12/01 08:04:28;;;;;;;18.65;7.68;;;-1.20;99.90;;;;;;5095526;28;20032;-87
2023/12/01 08:06:55;;;;;;;17.33;6.82;;;-1.20;99.90;;;;;;5095619;28;20052;-86
2023/12/01 08:09:24;;;;;;;18.75;7.85;;;-1.20;99.90;;;;;;5112085;28;20096;-86
2023/12/01 08:11:50;;;;;;;13.93;5.55;;;-1.20;99.90;;;;;;5111491;28;20495;-86
2023/12/01 08:14:16;;;;;;;15.00;6.80;;;-1.20;99.90;;;;;;5110242;28;20039;-86
2023/12/01 08:16:44;;;;;;;18.92;7.18;;;-1.20;99.90;;;;;;5094822;28;20032;-87
2023/12/01 08:19:09;;;;;;;18.65;8.13;;;-1.20;99.90;;;;;;5111425;28;20062;-86
2023/12/01 08:21:36;;;;;;;16.48;6.65;;;-1.20;99.90;;;;;;5094950;28;20055;-86
2023/12/01 08:24:04;;;;;;;17.10;6.25;;;-1.20;99.90;;;;;;5107940;28;20043;-86
2023/12/01 08:26:33;;;;;;;19.33;6.97;;;-1.20;99.90;;;;;;5111594;28;20061;-87
2023/12/01 08:28:58;;;;;;;21.73;9.20;;;-1.20;99.90;;;;;;5110333;28;20046;-87
2023/12/01 08:31:24;;;;;;;17.92;9.13;;;-1.10;99.90;;;;;;5094413;28;20032;-86
2023/12/01 08:33:50;;;;;;;20.75;7.90;;;-1.10;99.90;;;;;;5095100;28;20562;-86
2023/12/01 08:36:17;;;;;;;16.42;6.35;;;-1.10;99.90;;;;;;5111884;28;20080;-86
2023/12/01 08:38:43;;;;;;;18.65;7.95;;;-1.10;99.90;;;;;;5111736;28;20647;-86
2023/12/01 08:41:08;;;;;;;18.15;6.97;;;-1.10;99.90;;;;;;5094568;28;20068;-86
2023/12/01 08:43:34;;;;;;;19.45;7.07;;;-1.10;99.90;;;;;;5119878;27;20191;-86
2023/12/01 08:46:00;;;;;;;20.17;7.22;;;-1.10;99.90;;;;;;5094831;28;20119;-86
2023/12/01 08:48:25;;;;;;;15.85;6.53;;;-1.00;99.90;;;;;;5094476;28;20062;-87
2023/12/01 08:50:51;;;;;;;15.27;5.35;;;-1.00;99.90;;;;;;5111247;28;20043;-86
2023/12/01 08:53:17;;;;;;;14.63;6.90;;;-1.00;99.90;;;;;;5094464;28;20043;-86
2023/12/01 08:55:46;;;;;;;14.35;6.60;;;-1.00;99.90;;;;;;5095093;28;20040;-87
2023/12/01 08:58:12;;;;;;;19.00;6.78;;;-0.90;99.90;;;;;;5111379;28;20040;-87
2023/12/01 09:00:38;;;;;;;16.88;7.55;;;-0.90;99.90;;;;;;5110951;28;20051;-86
2023/12/01 09:03:03;;;;;;;13.45;6.00;;;-0.90;99.90;;;;;;5094607;28;20117;-86
2023/12/01 09:05:29;;;;;;;13.18;6.15;;;-0.80;99.90;;;;;;5085959;28;20670;-86
2023/12/01 09:07:54;;;;;;;18.05;7.90;;;-0.80;99.90;;;;;;5094325;28;20050;-87
2023/12/01 09:10:22;;;;;;;19.90;8.48;;;-0.70;99.90;;;;;;5110958;28;20518;-86
2023/12/01 09:12:50;;;;;;;16.42;6.47;;;-0.70;99.90;;;;;;5111231;28;20043;-86
2023/12/01 09:15:15;;;;;;;15.15;6.88;;;-0.60;99.90;;;;;;5094377;28;20035;-86
2023/12/01 09:17:41;;;;;;;16.70;7.07;;;-0.50;99.90;;;;;;5111176;28;20364;-86
2023/12/01 09:20:08;;;;;;;18.40;7.10;;;-0.50;99.90;;;;;;5093652;28;20411;-87
2023/12/01 09:22:36;;;;;;;18.48;6.32;;;-0.50;99.90;;;;;;5110574;28;20039;-86
2023/12/01 09:25:02;;;;;;;17.75;7.28;;;-0.40;99.90;;;;;;5110521;28;20522;-86
2023/12/01 09:27:27;;;;;;;18.50;7.57;;;-0.40;99.90;;;;;;5111049;28;20035;-87
2023/12/01 09:29:53;;;;;;;20.95;7.82;;;-0.30;99.90;;;;;;5093697;28;20040;-86
2023/12/01 09:32:19;;;;;;;15.65;6.38;;;-0.20;99.90;;;;;;5110517;28;20054;-87
2023/12/01 09:34:45;;;;;;;18.42;8.65;;;-0.20;99.90;;;;;;5093577;28;20410;-86
2023/12/01 09:37:12;;;;;;;16.75;6.15;;;-0.10;99.90;;;;;;5110886;28;20038;-87
2023/12/01 09:39:37;;;;;;;14.32;5.57;;;0.00;99.90;;;;;;5093767;28;20044;-86
2023/12/01 09:42:09;;;;;;;14.15;5.53;;;0.00;99.90;;;;;;5110361;28;20038;-86
2023/12/01 09:44:35;;;;;;;18.33;7.72;;;0.10;99.90;;;;;;5110672;28;20055;-87
2023/12/01 09:47:02;;;;;;;16.77;6.35;;;0.10;99.90;;;;;;5110722;28;20050;-86
2023/12/01 09:49:33;;;;;;;17.67;6.30;;;0.20;99.90;;;;;;5110347;28;20039;-87
2023/12/01 09:52:03;;;;;;;15.55;7.78;;;0.30;99.90;;;;;;5093768;28;20406;-87
2023/12/01 09:54:30;;;;;;;15.68;7.05;;;0.30;99.90;;;;;;5111775;28;20122;-87
2023/12/01 09:57:03;;;;;;;13.40;5.97;;;0.40;99.90;;;;;;5095848;28;20138;-86
2023/12/01 09:59:29;;;;;;;13.48;5.47;;;0.40;99.90;;;;;;5111117;28;20036;-86
2023/12/01 10:01:55;;;;;;;17.00;5.78;;;0.50;99.90;;;;;;5110166;28;20047;-86
2023/12/01 10:04:21;;;;;;;12.63;5.22;;;0.50;99.90;;;;;;5110005;28;20046;-86
2023/12/01 10:06:48;;;;;;;14.93;6.72;;;0.60;99.90;;;;;;5106349;27;20517;-86
2023/12/01 10:09:25;;;;;;;16.13;5.93;;;0.70;99.90;;;;;;5122319;27;20125;-86
2023/12/01 10:12:10;;;;;;;14.02;6.82;;;0.70;99.90;;;;;;5117079;27;20039;-87
2023/12/01 10:14:36;;;;;;;14.50;6.18;;;0.80;99.90;;;;;;5102299;28;20088;-87
2023/12/01 10:17:09;;;;;;;14.77;6.47;;;0.90;99.90;;;;;;5109765;28;20533;-87
2023/12/01 10:19:47;;;;;;;18.20;7.70;;;1.00;99.90;;;;;;5092989;28;20027;-88
2023/12/01 10:22:15;;;;;;;15.10;6.65;;;1.20;99.90;;;;;;5092624;28;20088;-88
2023/12/01 10:25:04;;;;;;;15.18;5.90;;;1.30;99.90;;;;;;5092696;28;20058;-87
2023/12/01 10:27:31;;;;;;;12.30;5.68;;;1.40;99.90;;;;;;5109671;28;20047;-87
2023/12/01 10:30:13;;;;;;;16.35;7.30;;;1.60;99.90;;;;;;5109775;28;20048;-89
2023/12/01 10:32:41;;;;;;;14.93;6.57;;;1.70;99.90;;;;;;5109927;28;20092;-86
2023/12/01 10:35:07;;;;;;;18.70;7.38;;;1.80;99.90;;;;;;5093407;28;20043;-86
2023/12/01 10:37:34;;;;;;;22.20;8.30;;;1.80;99.90;;;;;;5092319;28;20519;-86
2023/12/01 10:40:01;;;;;;;14.63;7.15;;;1.90;99.90;;;;;;5109951;28;20043;-87
2023/12/01 10:42:32;;;;;;;16.88;6.15;;;2.10;99.90;;;;;;5109802;28;20447;-85
2023/12/01 10:45:03;;;;;;;15.32;5.15;;;2.20;99.90;;;;;;5110419;28;20043;-86
2023/12/01 10:47:29;;;;;;;16.20;7.05;;;2.40;99.90;;;;;;5111001;28;20415;-86
2023/12/01 10:49:56;;;;;;;14.25;6.75;;;2.60;99.90;;;;;;5112970;28;20047;-86
2023/12/01 10:52:24;;;;;;;12.45;5.90;;;2.70;99.90;;;;;;5095151;28;20126;-85
2023/12/01 10:54:50;;;;;;;14.63;5.80;;;2.80;99.90;;;;;;5095310;28;20118;-86
2023/12/01 10:57:39;;;;;;;16.20;7.60;;;3.00;99.90;;;;;;5092858;28;20050;-86
2023/12/01 11:00:19;;;;;;;14.10;6.82;;;3.10;99.90;;;;;;5144727;27;20055;-86
2023/12/01 11:02:47;;;;;;;13.63;6.15;;;3.30;99.90;;;;;;5125623;27;20043;-87
2023/12/01 11:05:13;;;;;;;14.52;6.07;;;3.50;99.90;;;;;;5095328;28;20043;-86
2023/12/01 11:07:57;;;;;;;17.77;6.82;;;3.70;99.90;;;;;;5117179;27;20035;-87
2023/12/01 11:10:35;;;;;;;17.40;8.23;;;3.90;99.90;;;;;;5107875;27;20078;-87
2023/12/01 11:13:21;;;;;;;15.93;6.20;;;3.90;99.90;;;;;;5116965;27;20031;-87
2023/12/01 11:15:51;;;;;;;15.32;6.82;;;4.00;99.90;;;;;;5089482;28;20130;-87
2023/12/01 11:18:16;;;;;;;17.35;6.88;;;4.20;99.90;;;;;;5096346;28;20070;-87
2023/12/01 11:20:44;;;;;;;13.68;6.30;;;4.40;99.90;;;;;;5113579;28;20509;-87
2023/12/01 11:23:13;;;;;;;14.18;6.85;;;4.60;99.90;;;;;;5095308;28;20035;-87
2023/12/01 11:26:03;;;;;;;16.20;7.55;;;4.80;99.90;;;;;;5096119;28;20044;-87
2023/12/01 11:31:07;;;;;;;15.20;6.38;;;5.20;99.90;;;;;;5112204;28;20177;-87
2023/12/01 11:33:38;;;;;;;17.17;7.75;;;5.30;99.90;;;;;;5095439;28;20039;-87
2023/12/01 11:36:27;;;;;;;13.88;6.28;;;5.70;99.90;;;;;;5096371;28;20070;-87
2023/12/01 11:39:09;;;;;;;16.10;7.72;;;5.90;99.90;;;;;;5095765;28;20379;-87
2023/12/01 11:41:41;;;;;;;16.00;7.57;;;6.10;99.90;;;;;;5112218;28;20051;-87
2023/12/01 11:44:10;;;;;;;16.13;7.38;;;6.40;99.90;;;;;;5112475;28;20530;-87
2023/12/01 11:46:39;;;;;;;16.83;7.68;;;6.60;99.90;;;;;;5112620;28;20063;-87
2023/12/01 11:49:06;;;;;;;17.35;7.80;;;6.70;99.90;;;;;;5095940;28;20050;-87
2023/12/01 11:51:31;;;;;;;16.70;7.78;;;7.20;99.90;;;;;;5112555;28;20123;-88
2023/12/01 11:53:58;;;;;;;16.20;7.38;;;8.00;99.90;;;;;;5095630;28;20074;-87
2023/12/01 11:56:28;;;;;;;18.85;8.35;;;8.90;99.90;;;;;;5095890;28;20052;-87
2023/12/01 11:58:54;;;;;;;16.65;7.85;;;9.80;99.90;;;;;;5095130;28;20035;-87
2023/12/01 12:01:20;;;;;;;15.23;6.80;;;10.60;99.90;;;;;;5112055;28;20145;-87
2023/12/01 12:03:58;;;;;;;14.75;6.57;;;11.10;99.90;;;;;;5094435;28;20122;-87
2023/12/01 12:06:24;;;;;;;17.25;6.93;;;11.80;99.90;;;;;;5095326;28;20039;-87
2023/12/01 12:08:52;;;;;;;15.82;7.53;;;12.20;99.00;;;;;;5112572;28;20054;-86
2023/12/01 12:11:19;;;;;;;14.95;7.47;;;12.60;99.90;;;;;;5112022;28;20544;-87
2023/12/01 12:13:56;;;;;;;14.20;6.78;;;12.60;99.90;;;;;;5095187;28;20562;-87
2023/12/01 12:16:23;;;;;;;13.75;6.80;;;12.20;97.80;;;;;;5096463;28;20040;-87
2023/12/01 12:18:49;;;;;;;13.68;6.40;;;11.50;99.90;;;;;;5114624;28;20036;-86
2023/12/01 12:21:16;;;;;;;12.65;6.05;;;10.90;99.90;;;;;;5125950;28;20040;-87
2023/12/01 12:23:41;;;;;;;14.05;6.65;;;10.20;99.90;;;;;;5110831;28;20071;-86
2023/12/01 12:26:14;;;;;;;13.25;5.93;;;9.40;99.90;;;;;;5112701;28;20093;-86
2023/12/01 12:28:56;;;;;;;14.43;6.63;;;8.80;99.90;;;;;;5111503;28;20024;-87
2023/12/01 12:31:26;;;;;;;14.38;6.70;;;8.20;99.90;;;;;;5093323;28;20042;-87
2023/12/01 12:33:58;;;;;;;14.52;6.13;;;7.70;99.90;;;;;;5094731;28;20509;-87
2023/12/01 12:36:29;;;;;;;11.95;5.10;;;7.30;99.90;;;;;;5111558;28;20080;-87
2023/12/01 12:39:01;;;;;;;12.23;6.13;;;6.90;99.90;;;;;;5140544;27;20100;-87
2023/12/01 12:41:31;;;;;;;13.90;6.45;;;6.60;99.90;;;;;;5094244;28;20513;-87
2023/12/01 12:43:59;;;;;;;11.88;5.72;;;6.40;99.90;;;;;;5109016;28;20047;-87
2023/12/01 12:46:27;;;;;;;14.43;7.20;;;6.20;99.90;;;;;;5093549;28;20506;-87
2023/12/01 12:48:57;;;;;;;13.10;6.25;;;6.00;99.90;;;;;;5110568;28;20035;-86